sensor_id;sensor_type;location;lat;lon;timestamp;temperature;humidity
30379;DHT22;17168;49.164;9.060;2024-03-23T00:54:14;14.90;70.90
30379;DHT22;17168;49.164;9.060;2024-03-23T00:56:45;15.00;70.90
30379;DHT22;17168;49.164;9.060;2024-03-23T00:59:19;14.90;70.90
30379;DHT22;17168;49.164;9.060;2024-03-23T01:01:50;15.00;70.90
30379;DHT22;17168;49.164;9.060;2024-03-23T01:04:21;15.00;70.90
30379;DHT22;17168;49.164;9.060;2024-03-23T01:06:52;15.10;70.80
30379;DHT22;17168;49.164;9.060;2024-03-23T01:09:23;15.10;70.80
30379;DHT22;17168;49.164;9.060;2024-03-23T01:11:54;15.20;70.70
30379;DHT22;17168;49.164;9.060;2024-03-23T01:14:28;15.30;70.70
30379;DHT22;17168;49.164;9.060;2024-03-23T01:16:59;15.30;70.60
30379;DHT22;17168;49.164;9.060;2024-03-23T01:19:30;15.30;70.50
30379;DHT22;17168;49.164;9.060;2024-03-23T01:22:01;15.30;70.40
30379;DHT22;17168;49.164;9.060;2024-03-23T01:24:32;15.30;70.60
30379;DHT22;17168;49.164;9.060;2024-03-23T01:27:04;15.30;70.40
30379;DHT22;17168;49.164;9.060;2024-03-23T01:29:38;15.30;70.30
30379;DHT22;17168;49.164;9.060;2024-03-23T01:32:09;15.40;70.30
30379;DHT22;17168;49.164;9.060;2024-03-23T01:34:40;15.30;70.10
30379;DHT22;17168;49.164;9.060;2024-03-23T01:37:12;15.30;70.10
30379;DHT22;17168;49.164;9.060;2024-03-23T01:39:42;15.30;70.10
30379;DHT22;17168;49.164;9.060;2024-03-23T01:42:14;15.20;70.00
30379;DHT22;17168;49.164;9.060;2024-03-23T01:44:48;15.20;70.00
30379;DHT22;17168;49.164;9.060;2024-03-23T01:47:19;15.20;69.90
30379;DHT22;17168;49.164;9.060;2024-03-23T01:49:50;15.20;69.80
30379;DHT22;17168;49.164;9.060;2024-03-23T01:52:22;15.20;69.70
30379;DHT22;17168;49.164;9.060;2024-03-23T01:54:53;15.20;69.50
30379;DHT22;17168;49.164;9.060;2024-03-23T01:57:24;15.10;69.40
30379;DHT22;17168;49.164;9.060;2024-03-23T01:59:58;15.10;69.40
30379;DHT22;17168;49.164;9.060;2024-03-23T02:02:29;15.00;69.40
30379;DHT22;17168;49.164;9.060;2024-03-23T02:05:00;15.00;69.50
30379;DHT22;17168;49.164;9.060;2024-03-23T02:07:31;14.80;69.70
30379;DHT22;17168;49.164;9.060;2024-03-23T02:10:02;14.70;70.00
30379;DHT22;17168;49.164;9.060;2024-03-23T02:12:33;14.60;70.20
30379;DHT22;17168;49.164;9.060;2024-03-23T02:15:08;14.60;70.30
30379;DHT22;17168;49.164;9.060;2024-03-23T02:17:42;14.60;70.50
30379;DHT22;17168;49.164;9.060;2024-03-23T02:20:13;14.60;70.50
30379;DHT22;17168;49.164;9.060;2024-03-23T02:22:44;14.50;70.50
30379;DHT22;17168;49.164;9.060;2024-03-23T02:25:17;14.50;71.10
30379;DHT22;17168;49.164;9.060;2024-03-23T02:27:48;14.30;70.70
30379;DHT22;17168;49.164;9.060;2024-03-23T02:30:20;14.30;71.10
30379;DHT22;17168;49.164;9.060;2024-03-23T02:32:51;14.30;71.60
30379;DHT22;17168;49.164;9.060;2024-03-23T02:35:23;14.20;71.80
30379;DHT22;17168;49.164;9.060;2024-03-23T02:37:54;14.20;72.10
30379;DHT22;17168;49.164;9.060;2024-03-23T02:40:29;14.30;72.20
30379;DHT22;17168;49.164;9.060;2024-03-23T02:43:00;14.30;72.20
30379;DHT22;17168;49.164;9.060;2024-03-23T02:45:31;14.40;72.20
30379;DHT22;17168;49.164;9.060;2024-03-23T02:48:03;14.30;71.70
30379;DHT22;17168;49.164;9.060;2024-03-23T02:50:34;14.20;71.80
30379;DHT22;17168;49.164;9.060;2024-03-23T02:53:05;14.00;72.20
30379;DHT22;17168;49.164;9.060;2024-03-23T02:55:39;13.80;72.90
30379;DHT22;17168;49.164;9.060;2024-03-23T02:58:10;13.60;73.40
30379;DHT22;17168;49.164;9.060;2024-03-23T03:00:42;13.40;73.90
30379;DHT22;17168;49.164;9.060;2024-03-23T03:03:13;13.30;74.60
30379;DHT22;17168;49.164;9.060;2024-03-23T03:05:44;13.10;74.90
30379;DHT22;17168;49.164;9.060;2024-03-23T03:08:15;13.00;75.10
30379;DHT22;17168;49.164;9.060;2024-03-23T03:10:48;12.90;75.40
30379;DHT22;17168;49.164;9.060;2024-03-23T03:13:19;12.80;76.10
30379;DHT22;17168;49.164;9.060;2024-03-23T03:15:50;12.80;77.60
30379;DHT22;17168;49.164;9.060;2024-03-23T03:18:21;12.90;77.90
30379;DHT22;17168;49.164;9.060;2024-03-23T03:20:54;12.90;78.50
30379;DHT22;17168;49.164;9.060;2024-03-23T03:23:25;13.00;78.50
30379;DHT22;17168;49.164;9.060;2024-03-23T03:25:59;13.10;78.70
30379;DHT22;17168;49.164;9.060;2024-03-23T03:28:30;13.10;78.70
30379;DHT22;17168;49.164;9.060;2024-03-23T03:31:03;13.10;79.20
30379;DHT22;17168;49.164;9.060;2024-03-23T03:33:34;13.20;79.40
30379;DHT22;17168;49.164;9.060;2024-03-23T03:36:05;13.20;79.10
30379;DHT22;17168;49.164;9.060;2024-03-23T03:38:36;13.20;79.10
30379;DHT22;17168;49.164;9.060;2024-03-23T03:41:10;13.20;79.00
30379;DHT22;17168;49.164;9.060;2024-03-23T03:43:41;13.20;79.10
30379;DHT22;17168;49.164;9.060;2024-03-23T03:46:12;13.20;79.20
30379;DHT22;17168;49.164;9.060;2024-03-23T03:48:43;13.20;79.30
30379;DHT22;17168;49.164;9.060;2024-03-23T03:51:15;13.20;79.50
30379;DHT22;17168;49.164;9.060;2024-03-23T03:53:47;13.20;79.80
30379;DHT22;17168;49.164;9.060;2024-03-23T03:56:20;13.20;80.00
30379;DHT22;17168;49.164;9.060;2024-03-23T03:58:53;13.20;80.30
30379;DHT22;17168;49.164;9.060;2024-03-23T04:01:24;13.20;80.60
30379;DHT22;17168;49.164;9.060;2024-03-23T04:03:55;13.20;80.90
30379;DHT22;17168;49.164;9.060;2024-03-23T04:06:26;13.20;81.10
30379;DHT22;17168;49.164;9.060;2024-03-23T04:08:57;13.20;81.40
30379;DHT22;17168;49.164;9.060;2024-03-23T04:11:31;13.20;81.80
30379;DHT22;17168;49.164;9.060;2024-03-23T04:14:02;13.20;82.00
30379;DHT22;17168;49.164;9.060;2024-03-23T04:16:34;13.20;82.40
30379;DHT22;17168;49.164;9.060;2024-03-23T04:19:06;13.10;82.50
30379;DHT22;17168;49.164;9.060;2024-03-23T04:21:37;13.10;82.80
30379;DHT22;17168;49.164;9.060;2024-03-23T04:24:08;13.10;83.20
30379;DHT22;17168;49.164;9.060;2024-03-23T04:26:45;13.10;83.70
30379;DHT22;17168;49.164;9.060;2024-03-23T04:29:16;13.10;84.30
30379;DHT22;17168;49.164;9.060;2024-03-23T04:31:47;13.00;85.00
30379;DHT22;17168;49.164;9.060;2024-03-23T04:34:18;13.00;86.30
30379;DHT22;17168;49.164;9.060;2024-03-23T04:36:50;13.00;87.10
30379;DHT22;17168;49.164;9.060;2024-03-23T04:39:21;12.90;89.00
30379;DHT22;17168;49.164;9.060;2024-03-23T04:41:54;12.80;89.70
30379;DHT22;17168;49.164;9.060;2024-03-23T04:44:25;12.80;90.20
30379;DHT22;17168;49.164;9.060;2024-03-23T04:46:56;12.70;90.70
30379;DHT22;17168;49.164;9.060;2024-03-23T04:49:28;12.60;91.10
30379;DHT22;17168;49.164;9.060;2024-03-23T04:51:59;12.60;91.60
30379;DHT22;17168;49.164;9.060;2024-03-23T04:54:30;12.60;92.00
30379;DHT22;17168;49.164;9.060;2024-03-23T04:57:05;12.50;92.30
30379;DHT22;17168;49.164;9.060;2024-03-23T04:59:36;12.50;92.60
30379;DHT22;17168;49.164;9.060;2024-03-23T05:02:08;12.20;93.80
30379;DHT22;17168;49.164;9.060;2024-03-23T05:04:39;12.50;93.30
30379;DHT22;17168;49.164;9.060;2024-03-23T05:07:11;12.40;93.50
30379;DHT22;17168;49.164;9.060;2024-03-23T05:09:42;12.40;93.90
30379;DHT22;17168;49.164;9.060;2024-03-23T05:12:16;12.40;94.40
30379;DHT22;17168;49.164;9.060;2024-03-23T05:14:47;12.40;94.40
30379;DHT22;17168;49.164;9.060;2024-03-23T05:17:18;12.40;94.50
30379;DHT22;17168;49.164;9.060;2024-03-23T05:19:49;12.40;94.50
30379;DHT22;17168;49.164;9.060;2024-03-23T05:22:20;12.30;94.10
30379;DHT22;17168;49.164;9.060;2024-03-23T05:24:51;12.20;94.30
30379;DHT22;17168;49.164;9.060;2024-03-23T05:27:25;12.20;94.50
30379;DHT22;17168;49.164;9.060;2024-03-23T05:29:56;12.10;94.80
30379;DHT22;17168;49.164;9.060;2024-03-23T05:32:27;12.00;94.60
30379;DHT22;17168;49.164;9.060;2024-03-23T05:34:58;11.90;94.90
30379;DHT22;17168;49.164;9.060;2024-03-23T05:37:29;11.90;94.90
30379;DHT22;17168;49.164;9.060;2024-03-23T05:40:02;11.80;95.00
30379;DHT22;17168;49.164;9.060;2024-03-23T05:42:37;11.70;95.30
30379;DHT22;17168;49.164;9.060;2024-03-23T05:45:08;11.60;95.60
30379;DHT22;17168;49.164;9.060;2024-03-23T05:47:39;11.60;95.60
30379;DHT22;17168;49.164;9.060;2024-03-23T05:50:10;11.50;95.80
30379;DHT22;17168;49.164;9.060;2024-03-23T05:52:43;11.50;96.10
30379;DHT22;17168;49.164;9.060;2024-03-23T05:55:14;11.40;96.00
30379;DHT22;17168;49.164;9.060;2024-03-23T05:57:48;11.30;96.50
30379;DHT22;17168;49.164;9.060;2024-03-23T06:00:19;11.20;96.70
30379;DHT22;17168;49.164;9.060;2024-03-23T06:02:50;11.10;97.10
30379;DHT22;17168;49.164;9.060;2024-03-23T06:05:21;11.00;97.40
30379;DHT22;17168;49.164;9.060;2024-03-23T06:07:52;11.00;97.80
30379;DHT22;17168;49.164;9.060;2024-03-23T06:10:23;10.90;98.10
30379;DHT22;17168;49.164;9.060;2024-03-23T06:12:57;10.80;98.60
30379;DHT22;17168;49.164;9.060;2024-03-23T06:15:30;10.70;99.10
30379;DHT22;17168;49.164;9.060;2024-03-23T06:18:02;10.70;99.20
30379;DHT22;17168;49.164;9.060;2024-03-23T06:20:34;10.60;99.40
30379;DHT22;17168;49.164;9.060;2024-03-23T06:23:05;10.60;99.70
30379;DHT22;17168;49.164;9.060;2024-03-23T06:25:36;10.60;99.90
30379;DHT22;17168;49.164;9.060;2024-03-23T06:28:10;10.60;99.90
30379;DHT22;17168;49.164;9.060;2024-03-23T06:30:41;10.60;99.90
30379;DHT22;17168;49.164;9.060;2024-03-23T06:33:13;10.60;99.90
30379;DHT22;17168;49.164;9.060;2024-03-23T06:35:50;10.60;99.90
30379;DHT22;17168;49.164;9.060;2024-03-23T06:38:21;10.60;99.90
30379;DHT22;17168;49.164;9.060;2024-03-23T06:40:52;10.60;99.90
30379;DHT22;17168;49.164;9.060;2024-03-23T06:43:26;10.60;99.90
30379;DHT22;17168;49.164;9.060;2024-03-23T06:45:57;10.60;99.90
30379;DHT22;17168;49.164;9.060;2024-03-23T06:48:28;10.50;99.30
30379;DHT22;17168;49.164;9.060;2024-03-23T06:50:59;10.40;96.60
30379;DHT22;17168;49.164;9.060;2024-03-23T06:53:30;10.30;96.20
30379;DHT22;17168;49.164;9.060;2024-03-23T06:56:01;10.10;95.60
30379;DHT22;17168;49.164;9.060;2024-03-23T06:58:35;10.10;95.70
30379;DHT22;17168;49.164;9.060;2024-03-23T07:01:06;9.90;96.30
30379;DHT22;17168;49.164;9.060;2024-03-23T07:03:37;9.80;96.50
30379;DHT22;17168;49.164;9.060;2024-03-23T07:06:09;9.70;97.10
30379;DHT22;17168;49.164;9.060;2024-03-23T07:08:41;9.70;97.70
30379;DHT22;17168;49.164;9.060;2024-03-23T07:11:12;9.60;98.20
30379;DHT22;17168;49.164;9.060;2024-03-23T07:13:52;9.50;98.80
30379;DHT22;17168;49.164;9.060;2024-03-23T07:16:26;9.50;98.90
30379;DHT22;17168;49.164;9.060;2024-03-23T07:18:57;9.50;99.20
30379;DHT22;17168;49.164;9.060;2024-03-23T07:21:29;9.40;99.40
30379;DHT22;17168;49.164;9.060;2024-03-23T07:24:00;9.40;99.60
30379;DHT22;17168;49.164;9.060;2024-03-23T07:26:31;9.40;99.40
30379;DHT22;17168;49.164;9.060;2024-03-23T07:29:06;9.40;99.70
30379;DHT22;17168;49.164;9.060;2024-03-23T07:31:37;9.40;99.90
30379;DHT22;17168;49.164;9.060;2024-03-23T07:34:09;9.40;99.90
30379;DHT22;17168;49.164;9.060;2024-03-23T07:36:40;9.40;99.90
30379;DHT22;17168;49.164;9.060;2024-03-23T07:39:11;9.30;99.90
30379;DHT22;17168;49.164;9.060;2024-03-23T07:41:44;9.30;99.90
30379;DHT22;17168;49.164;9.060;2024-03-23T07:44:18;9.30;99.90
30379;DHT22;17168;49.164;9.060;2024-03-23T07:46:49;9.30;99.90
30379;DHT22;17168;49.164;9.060;2024-03-23T07:49:20;9.30;99.90
30379;DHT22;17168;49.164;9.060;2024-03-23T07:51:51;9.40;99.90
30379;DHT22;17168;49.164;9.060;2024-03-23T07:54:22;9.40;99.90
30379;DHT22;17168;49.164;9.060;2024-03-23T07:56:53;9.40;99.90
30379;DHT22;17168;49.164;9.060;2024-03-23T07:59:28;9.40;99.90
30379;DHT22;17168;49.164;9.060;2024-03-23T08:02:02;9.40;99.90
30379;DHT22;17168;49.164;9.060;2024-03-23T08:04:33;9.50;99.90
30379;DHT22;17168;49.164;9.060;2024-03-23T08:07:04;9.50;99.90
30379;DHT22;17168;49.164;9.060;2024-03-23T08:09:35;9.50;97.50
30379;DHT22;17168;49.164;9.060;2024-03-23T08:12:07;9.50;95.90
30379;DHT22;17168;49.164;9.060;2024-03-23T08:14:41;9.40;94.60
30379;DHT22;17168;49.164;9.060;2024-03-23T08:17:12;9.50;93.80
30379;DHT22;17168;49.164;9.060;2024-03-23T08:19:43;9.40;93.30
30379;DHT22;17168;49.164;9.060;2024-03-23T08:22:14;9.40;93.70
30379;DHT22;17168;49.164;9.060;2024-03-23T08:24:45;9.50;93.60
30379;DHT22;17168;49.164;9.060;2024-03-23T08:27:16;9.50;92.60
30379;DHT22;17168;49.164;9.060;2024-03-23T08:29:50;9.50;92.00
30379;DHT22;17168;49.164;9.060;2024-03-23T08:32:21;9.60;90.60
30379;DHT22;17168;49.164;9.060;2024-03-23T08:34:52;9.60;90.50
30379;DHT22;17168;49.164;9.060;2024-03-23T08:37:23;9.60;89.20
30379;DHT22;17168;49.164;9.060;2024-03-23T08:39:55;9.60;89.00
30379;DHT22;17168;49.164;9.060;2024-03-23T08:42:26;9.60;88.00
30379;DHT22;17168;49.164;9.060;2024-03-23T08:45:00;9.60;86.70
30379;DHT22;17168;49.164;9.060;2024-03-23T08:47:34;9.60;86.80
30379;DHT22;17168;49.164;9.060;2024-03-23T08:50:06;9.60;87.00
30379;DHT22;17168;49.164;9.060;2024-03-23T08:52:37;9.50;87.10
30379;DHT22;17168;49.164;9.060;2024-03-23T08:55:08;9.60;86.40
30379;DHT22;17168;49.164;9.060;2024-03-23T08:57:40;9.50;87.00
30379;DHT22;17168;49.164;9.060;2024-03-23T09:00:15;9.60;87.00
30379;DHT22;17168;49.164;9.060;2024-03-23T09:02:47;9.70;87.20
30379;DHT22;17168;49.164;9.060;2024-03-23T09:05:18;9.70;84.90
30379;DHT22;17168;49.164;9.060;2024-03-23T09:07:49;9.70;84.30
30379;DHT22;17168;49.164;9.060;2024-03-23T09:10:20;9.70;85.30
30379;DHT22;17168;49.164;9.060;2024-03-23T09:12:53;9.80;85.00
30379;DHT22;17168;49.164;9.060;2024-03-23T09:15:26;9.90;83.60
30379;DHT22;17168;49.164;9.060;2024-03-23T09:17:59;10.00;82.80
30379;DHT22;17168;49.164;9.060;2024-03-23T09:20:32;10.00;83.00
30379;DHT22;17168;49.164;9.060;2024-03-23T09:23:04;10.10;83.50
30379;DHT22;17168;49.164;9.060;2024-03-23T09:25:38;10.20;81.20
30379;DHT22;17168;49.164;9.060;2024-03-23T09:28:09;10.30;78.80
30379;DHT22;17168;49.164;9.060;2024-03-23T09:30:43;10.20;79.40
30379;DHT22;17168;49.164;9.060;2024-03-23T09:33:14;10.30;79.80
30379;DHT22;17168;49.164;9.060;2024-03-23T09:35:45;10.30;79.70
30379;DHT22;17168;49.164;9.060;2024-03-23T09:38:16;10.30;80.20
30379;DHT22;17168;49.164;9.060;2024-03-23T09:40:48;10.40;79.40
30379;DHT22;17168;49.164;9.060;2024-03-23T09:43:20;10.40;78.80
30379;DHT22;17168;49.164;9.060;2024-03-23T09:45:54;10.40;78.30
30379;DHT22;17168;49.164;9.060;2024-03-23T09:48:25;10.40;76.30
30379;DHT22;17168;49.164;9.060;2024-03-23T09:50:57;10.40;76.00
30379;DHT22;17168;49.164;9.060;2024-03-23T09:53:28;10.40;76.60
30379;DHT22;17168;49.164;9.060;2024-03-23T09:55:59;10.40;76.70
30379;DHT22;17168;49.164;9.060;2024-03-23T09:58:30;10.40;75.60
30379;DHT22;17168;49.164;9.060;2024-03-23T10:01:06;10.40;75.50
30379;DHT22;17168;49.164;9.060;2024-03-23T10:03:44;10.40;75.30
30379;DHT22;17168;49.164;9.060;2024-03-23T10:06:21;10.30;73.90
30379;DHT22;17168;49.164;9.060;2024-03-23T10:08:52;10.30;73.90
30379;DHT22;17168;49.164;9.060;2024-03-23T10:11:25;10.30;73.40
30379;DHT22;17168;49.164;9.060;2024-03-23T10:13:58;10.30;73.50
30379;DHT22;17168;49.164;9.060;2024-03-23T10:16:31;10.20;73.00
30379;DHT22;17168;49.164;9.060;2024-03-23T10:19:02;10.20;73.60
30379;DHT22;17168;49.164;9.060;2024-03-23T10:21:36;10.10;74.00
30379;DHT22;17168;49.164;9.060;2024-03-23T10:24:08;10.10;73.80
30379;DHT22;17168;49.164;9.060;2024-03-23T10:26:40;10.10;73.90
30379;DHT22;17168;49.164;9.060;2024-03-23T10:29:16;10.00;75.00
30379;DHT22;17168;49.164;9.060;2024-03-23T10:31:51;9.90;75.70
30379;DHT22;17168;49.164;9.060;2024-03-23T10:34:25;9.90;76.20
30379;DHT22;17168;49.164;9.060;2024-03-23T10:36:57;9.90;76.80
30379;DHT22;17168;49.164;9.060;2024-03-23T10:39:31;9.90;77.20
30379;DHT22;17168;49.164;9.060;2024-03-23T10:42:04;9.90;77.50
30379;DHT22;17168;49.164;9.060;2024-03-23T10:44:36;9.90;76.90
30379;DHT22;17168;49.164;9.060;2024-03-23T10:47:10;9.80;76.50
30379;DHT22;17168;49.164;9.060;2024-03-23T10:49:41;9.80;76.50
30379;DHT22;17168;49.164;9.060;2024-03-23T10:52:12;9.70;77.10
30379;DHT22;17168;49.164;9.060;2024-03-23T10:54:44;9.70;77.30
30379;DHT22;17168;49.164;9.060;2024-03-23T10:57:21;9.70;77.40
30379;DHT22;17168;49.164;9.060;2024-03-23T10:59:54;9.70;77.50
30379;DHT22;17168;49.164;9.060;2024-03-23T11:02:28;9.80;76.60
30379;DHT22;17168;49.164;9.060;2024-03-23T11:05:00;9.80;76.40
30379;DHT22;17168;49.164;9.060;2024-03-23T11:07:32;9.90;75.30
30379;DHT22;17168;49.164;9.060;2024-03-23T11:10:26;10.00;75.10
30379;DHT22;17168;49.164;9.060;2024-03-23T11:12:59;10.10;75.10
30379;DHT22;17168;49.164;9.060;2024-03-23T11:15:50;10.10;74.00
30379;DHT22;17168;49.164;9.060;2024-03-23T11:18:23;10.30;74.90
30379;DHT22;17168;49.164;9.060;2024-03-23T11:20:54;10.50;74.80
30379;DHT22;17168;49.164;9.060;2024-03-23T11:23:27;10.70;74.50
30379;DHT22;17168;49.164;9.060;2024-03-23T11:25:59;10.80;73.90
30379;DHT22;17168;49.164;9.060;2024-03-23T11:28:30;11.00;72.50
30379;DHT22;17168;49.164;9.060;2024-03-23T11:31:01;11.10;71.90
30379;DHT22;17168;49.164;9.060;2024-03-23T11:33:42;11.20;71.10
30379;DHT22;17168;49.164;9.060;2024-03-23T11:36:19;11.30;70.60
30379;DHT22;17168;49.164;9.060;2024-03-23T11:38:50;11.30;71.30
30379;DHT22;17168;49.164;9.060;2024-03-23T11:41:21;11.30;71.00
30379;DHT22;17168;49.164;9.060;2024-03-23T11:43:52;11.40;70.30
30379;DHT22;17168;49.164;9.060;2024-03-23T11:46:23;11.40;71.30
30379;DHT22;17168;49.164;9.060;2024-03-23T11:48:57;11.50;72.10
30379;DHT22;17168;49.164;9.060;2024-03-23T11:51:29;11.70;71.60
30379;DHT22;17168;49.164;9.060;2024-03-23T11:54:08;12.10;69.80
30379;DHT22;17168;49.164;9.060;2024-03-23T11:56:39;12.60;67.10
30379;DHT22;17168;49.164;9.060;2024-03-23T11:59:10;13.30;65.00
30379;DHT22;17168;49.164;9.060;2024-03-23T12:01:42;13.70;63.30
30379;DHT22;17168;49.164;9.060;2024-03-23T12:04:25;14.20;61.80
30379;DHT22;17168;49.164;9.060;2024-03-23T12:07:13;14.50;61.20
30379;DHT22;17168;49.164;9.060;2024-03-23T12:09:45;14.60;59.90
30379;DHT22;17168;49.164;9.060;2024-03-23T12:12:19;14.80;60.10
30379;DHT22;17168;49.164;9.060;2024-03-23T12:15:02;15.20;60.10
30379;DHT22;17168;49.164;9.060;2024-03-23T12:17:33;15.80;58.40
30379;DHT22;17168;49.164;9.060;2024-03-23T12:20:09;16.10;56.00
30379;DHT22;17168;49.164;9.060;2024-03-23T12:22:40;16.30;54.60
30379;DHT22;17168;49.164;9.060;2024-03-23T12:25:11;16.50;53.50
30379;DHT22;17168;49.164;9.060;2024-03-23T12:27:42;16.90;50.80
30379;DHT22;17168;49.164;9.060;2024-03-23T12:30:13;17.20;50.40
30379;DHT22;17168;49.164;9.060;2024-03-23T12:32:44;17.40;49.50
30379;DHT22;17168;49.164;9.060;2024-03-23T12:35:18;17.40;49.00
30379;DHT22;17168;49.164;9.060;2024-03-23T12:37:49;17.30;49.10
30379;DHT22;17168;49.164;9.060;2024-03-23T12:40:20;17.30;48.20
30379;DHT22;17168;49.164;9.060;2024-03-23T12:42:51;17.50;47.00
30379;DHT22;17168;49.164;9.060;2024-03-23T12:45:23;17.60;47.40
30379;DHT22;17168;49.164;9.060;2024-03-23T12:47:54;17.60;47.60
30379;DHT22;17168;49.164;9.060;2024-03-23T12:50:28;17.30;48.70
30379;DHT22;17168;49.164;9.060;2024-03-23T12:52:59;16.50;50.90
30379;DHT22;17168;49.164;9.060;2024-03-23T12:55:30;15.80;51.60
30379;DHT22;17168;49.164;9.060;2024-03-23T12:58:01;15.30;54.70
30379;DHT22;17168;49.164;9.060;2024-03-23T13:00:32;15.00;55.30
30379;DHT22;17168;49.164;9.060;2024-03-23T13:03:03;14.60;56.40
30379;DHT22;17168;49.164;9.060;2024-03-23T13:05:38;14.20;56.90
30379;DHT22;17168;49.164;9.060;2024-03-23T13:08:08;13.80;56.50
30379;DHT22;17168;49.164;9.060;2024-03-23T13:10:39;13.50;57.60
30379;DHT22;17168;49.164;9.060;2024-03-23T13:13:10;13.20;58.90
30379;DHT22;17168;49.164;9.060;2024-03-23T13:15:41;12.70;63.40
30379;DHT22;17168;49.164;9.060;2024-03-23T13:18:12;11.90;66.20
30379;DHT22;17168;49.164;9.060;2024-03-23T13:20:46;11.10;68.90
30379;DHT22;17168;49.164;9.060;2024-03-23T13:25:50;9.90;72.30
30379;DHT22;17168;49.164;9.060;2024-03-23T13:28:21;9.60;75.70
30379;DHT22;17168;49.164;9.060;2024-03-23T13:30:52;9.40;76.40
30379;DHT22;17168;49.164;9.060;2024-03-23T13:33:23;9.30;78.70
30379;DHT22;17168;49.164;9.060;2024-03-23T13:35:57;9.20;79.00
30379;DHT22;17168;49.164;9.060;2024-03-23T13:38:29;9.10;80.10
30379;DHT22;17168;49.164;9.060;2024-03-23T13:41:00;9.00;80.60
30379;DHT22;17168;49.164;9.060;2024-03-23T13:43:31;8.80;81.40
30379;DHT22;17168;49.164;9.060;2024-03-23T13:46:02;8.70;83.90
30379;DHT22;17168;49.164;9.060;2024-03-23T13:48:33;8.50;83.40
30379;DHT22;17168;49.164;9.060;2024-03-23T13:51:07;8.30;84.30
30379;DHT22;17168;49.164;9.060;2024-03-23T13:53:38;8.10;85.50
30379;DHT22;17168;49.164;9.060;2024-03-23T13:56:09;7.90;87.00
30379;DHT22;17168;49.164;9.060;2024-03-23T13:58:40;7.80;90.10
30379;DHT22;17168;49.164;9.060;2024-03-23T14:01:17;8.20;94.60
30379;DHT22;17168;49.164;9.060;2024-03-23T14:03:48;8.80;99.90
30379;DHT22;17168;49.164;9.060;2024-03-23T14:06:21;9.40;98.80
30379;DHT22;17168;49.164;9.060;2024-03-23T14:08:52;9.80;95.40
30379;DHT22;17168;49.164;9.060;2024-03-23T14:11:23;10.10;94.50
30379;DHT22;17168;49.164;9.060;2024-03-23T14:13:56;10.30;90.10
30379;DHT22;17168;49.164;9.060;2024-03-23T14:16:27;10.40;86.40
30379;DHT22;17168;49.164;9.060;2024-03-23T14:18:58;10.40;82.40
30379;DHT22;17168;49.164;9.060;2024-03-23T14:21:32;10.30;81.00
30379;DHT22;17168;49.164;9.060;2024-03-23T14:24:05;10.30;80.60
30379;DHT22;17168;49.164;9.060;2024-03-23T14:26:37;10.20;80.30
30379;DHT22;17168;49.164;9.060;2024-03-23T14:29:08;10.20;80.30
30379;DHT22;17168;49.164;9.060;2024-03-23T14:31:40;10.20;80.50
30379;DHT22;17168;49.164;9.060;2024-03-23T14:34:11;10.20;81.00
30379;DHT22;17168;49.164;9.060;2024-03-23T14:36:44;10.20;80.70
30379;DHT22;17168;49.164;9.060;2024-03-23T14:39:15;10.20;81.00
30379;DHT22;17168;49.164;9.060;2024-03-23T14:41:46;10.20;80.50
30379;DHT22;17168;49.164;9.060;2024-03-23T14:44:17;10.20;78.60
30379;DHT22;17168;49.164;9.060;2024-03-23T14:46:49;10.20;79.50
30379;DHT22;17168;49.164;9.060;2024-03-23T14:49:20;10.20;77.60
30379;DHT22;17168;49.164;9.060;2024-03-23T14:51:54;10.10;77.00
30379;DHT22;17168;49.164;9.060;2024-03-23T14:54:25;10.00;77.50
30379;DHT22;17168;49.164;9.060;2024-03-23T14:56:56;9.90;77.90
30379;DHT22;17168;49.164;9.060;2024-03-23T14:59:28;9.80;77.90
30379;DHT22;17168;49.164;9.060;2024-03-23T15:02:01;9.50;79.60
30379;DHT22;17168;49.164;9.060;2024-03-23T15:04:32;9.10;81.70
30379;DHT22;17168;49.164;9.060;2024-03-23T15:07:06;8.80;82.70
30379;DHT22;17168;49.164;9.060;2024-03-23T15:09:37;8.60;83.40
30379;DHT22;17168;49.164;9.060;2024-03-23T15:12:08;8.40;83.80
30379;DHT22;17168;49.164;9.060;2024-03-23T15:14:39;8.30;85.40
30379;DHT22;17168;49.164;9.060;2024-03-23T15:17:10;8.30;86.40
30379;DHT22;17168;49.164;9.060;2024-03-23T15:19:41;8.30;87.10
30379;DHT22;17168;49.164;9.060;2024-03-23T15:22:17;8.30;88.30
30379;DHT22;17168;49.164;9.060;2024-03-23T15:24:48;8.30;88.80
30379;DHT22;17168;49.164;9.060;2024-03-23T15:27:19;8.30;87.90
30379;DHT22;17168;49.164;9.060;2024-03-23T15:29:50;8.40;89.00
30379;DHT22;17168;49.164;9.060;2024-03-23T15:32:21;8.40;86.20
30379;DHT22;17168;49.164;9.060;2024-03-23T15:34:52;8.40;86.00
30379;DHT22;17168;49.164;9.060;2024-03-23T15:37:26;8.40;86.70
30379;DHT22;17168;49.164;9.060;2024-03-23T15:39:57;8.50;86.20
30379;DHT22;17168;49.164;9.060;2024-03-23T15:42:28;8.50;86.80
30379;DHT22;17168;49.164;9.060;2024-03-23T15:45:00;8.60;87.40
30379;DHT22;17168;49.164;9.060;2024-03-23T15:47:31;8.60;85.10
30379;DHT22;17168;49.164;9.060;2024-03-23T15:50:02;8.70;85.00
30379;DHT22;17168;49.164;9.060;2024-03-23T15:52:41;8.80;84.50
30379;DHT22;17168;49.164;9.060;2024-03-23T15:55:12;8.80;82.00
30379;DHT22;17168;49.164;9.060;2024-03-23T15:57:44;8.90;80.00
30379;DHT22;17168;49.164;9.060;2024-03-23T16:00:15;8.90;80.10
30379;DHT22;17168;49.164;9.060;2024-03-23T16:02:46;8.90;80.30
30379;DHT22;17168;49.164;9.060;2024-03-23T16:05:17;9.00;80.00
30379;DHT22;17168;49.164;9.060;2024-03-23T16:07:51;9.00;80.40
30379;DHT22;17168;49.164;9.060;2024-03-23T16:10:22;9.00;78.00
30379;DHT22;17168;49.164;9.060;2024-03-23T16:12:54;9.00;77.80
30379;DHT22;17168;49.164;9.060;2024-03-23T16:15:25;8.90;77.10
30379;DHT22;17168;49.164;9.060;2024-03-23T16:17:56;8.90;77.00
30379;DHT22;17168;49.164;9.060;2024-03-23T16:20:27;8.90;76.70
30379;DHT22;17168;49.164;9.060;2024-03-23T16:23:00;8.90;77.50
30379;DHT22;17168;49.164;9.060;2024-03-23T16:25:32;8.80;77.90
30379;DHT22;17168;49.164;9.060;2024-03-23T16:28:03;8.80;78.30
30379;DHT22;17168;49.164;9.060;2024-03-23T16:30:34;8.80;79.40
30379;DHT22;17168;49.164;9.060;2024-03-23T16:33:05;8.70;79.70
30379;DHT22;17168;49.164;9.060;2024-03-23T16:35:36;8.70;80.60
30379;DHT22;17168;49.164;9.060;2024-03-23T16:38:10;8.60;80.30
30379;DHT22;17168;49.164;9.060;2024-03-23T16:40:41;8.40;78.90
30379;DHT22;17168;49.164;9.060;2024-03-23T16:43:19;7.70;77.90
30379;DHT22;17168;49.164;9.060;2024-03-23T16:45:55;7.00;79.70
30379;DHT22;17168;49.164;9.060;2024-03-23T16:48:27;6.40;82.30
30379;DHT22;17168;49.164;9.060;2024-03-23T16:50:59;6.10;89.60
30379;DHT22;17168;49.164;9.060;2024-03-23T16:56:07;5.30;92.30
30379;DHT22;17168;49.164;9.060;2024-03-23T16:58:39;5.10;96.60
30379;DHT22;17168;49.164;9.060;2024-03-23T17:03:49;4.70;99.90
30379;DHT22;17168;49.164;9.060;2024-03-23T17:06:20;4.60;99.90
30379;DHT22;17168;49.164;9.060;2024-03-23T17:08:56;4.60;99.90